Terminal Aerodrome Forecast
Issued by NWS Bismarck, ND

Home | Current Version | Previous Version | Text Only | Print | Product List | Glossary On
Versions: 1 2 3 4 5 6 7 8 9 10 11 12 13
000
FTUS43 KBIS 301851 AAA
TAFISN
TAF AMD
KISN 301851Z 3019/3118 14011G17KT P6SM SCT080 BKN120
     FM302100 13012KT P6SM VCSH BKN120
     FM310400 11011KT P6SM VCTS BKN080 OVC100CB
     FM311200 14013KT P6SM SCT130=

USA.gov is the U.S. government's official web portal to all federal, state and local government web resources and services.